AUA99HC LOWW-EKCH
Flight info
| Callsign | AUA99HC |
|---|---|
| Flight time | 1h 10m |
| Altitude | 38000 |
| Route | LANUX DCT VLM DCT HDO DCT BAKDO DCT KOSEB T298 MONAK |
| Aircraft | A20N/M-SDE2E3FGHIJ1RWXY/LB1 |
Departure
| Time | 2026-04-26 15:43 |
|---|---|
| Airport | Vienna International Airport (LOWW) |
Arrival
| Time | 2026-04-26 16:54 |
|---|---|
| Airport | Copenhagen Kastrup Airport (EKCH) |
| Time | Latitude | Longitude | Altitude | Speed | Heading |
|---|---|---|---|---|---|
| 2026-04-26 15:16 | 48.11940 | 16.57837 | 590 ft | 0 kts | 165° |
| 2026-04-26 15:17 | 48.11899 | 16.56772 | 595 ft | 0 kts | 205° |
| 2026-04-26 15:31 | 48.11925 | 16.56790 | 594 ft | 2 kts | 205° |
| 2026-04-26 15:31 | 48.11940 | 16.56801 | 593 ft | 2 kts | 205° |
| 2026-04-26 15:32 | 48.11959 | 16.56811 | 592 ft | 2 kts | 163° |
| 2026-04-26 15:32 | 48.11969 | 16.56788 | 591 ft | 0 kts | 102° |
| 2026-04-26 15:32 | 48.11970 | 16.56782 | 591 ft | 0 kts | 115° |
| 2026-04-26 15:34 | 48.11969 | 16.56786 | 591 ft | 0 kts | 116° |
| 2026-04-26 15:34 | 48.11965 | 16.56799 | 591 ft | 1 kts | 116° |
| 2026-04-26 15:34 | 48.11959 | 16.56819 | 592 ft | 2 kts | 116° |
| 2026-04-26 15:35 | 48.11951 | 16.56842 | 592 ft | 1 kts | 116° |
| 2026-04-26 15:35 | 48.11949 | 16.56850 | 593 ft | 0 kts | 116° |
| 2026-04-26 15:36 | 48.11948 | 16.56852 | 593 ft | 1 kts | 116° |
| 2026-04-26 15:36 | 48.11932 | 16.56904 | 595 ft | 7 kts | 114° |
| 2026-04-26 15:36 | 48.11898 | 16.57005 | 598 ft | 11 kts | 117° |
| 2026-04-26 15:36 | 48.11856 | 16.57153 | 598 ft | 16 kts | 92° |
| 2026-04-26 15:37 | 48.11819 | 16.57337 | 596 ft | 17 kts | 108° |
| 2026-04-26 15:37 | 48.11742 | 16.57497 | 594 ft | 18 kts | 162° |
| 2026-04-26 15:37 | 48.11607 | 16.57556 | 596 ft | 18 kts | 164° |
| 2026-04-26 15:37 | 48.11471 | 16.57612 | 597 ft | 18 kts | 165° |
| 2026-04-26 15:38 | 48.11331 | 16.57672 | 596 ft | 19 kts | 164° |
| 2026-04-26 15:38 | 48.11187 | 16.57732 | 596 ft | 20 kts | 164° |
| 2026-04-26 15:38 | 48.11042 | 16.57795 | 598 ft | 19 kts | 164° |
| 2026-04-26 15:38 | 48.10905 | 16.57852 | 599 ft | 19 kts | 165° |
| 2026-04-26 15:39 | 48.10765 | 16.57911 | 600 ft | 19 kts | 164° |
| 2026-04-26 15:39 | 48.10631 | 16.57969 | 603 ft | 18 kts | 165° |
| 2026-04-26 15:39 | 48.10502 | 16.58024 | 605 ft | 17 kts | 164° |
| 2026-04-26 15:39 | 48.10457 | 16.58043 | 604 ft | 18 kts | 164° |
| 2026-04-26 15:40 | 48.10238 | 16.58135 | 607 ft | 18 kts | 163° |
| 2026-04-26 15:40 | 48.10098 | 16.58195 | 606 ft | 19 kts | 165° |
| 2026-04-26 15:40 | 48.09958 | 16.58253 | 607 ft | 19 kts | 164° |
| 2026-04-26 15:40 | 48.09811 | 16.58316 | 606 ft | 20 kts | 164° |
| 2026-04-26 15:41 | 48.09655 | 16.58383 | 604 ft | 21 kts | 165° |
| 2026-04-26 15:41 | 48.09495 | 16.58450 | 604 ft | 22 kts | 165° |
| 2026-04-26 15:41 | 48.09330 | 16.58518 | 602 ft | 23 kts | 162° |
| 2026-04-26 15:41 | 48.09157 | 16.58592 | 598 ft | 24 kts | 165° |
| 2026-04-26 15:42 | 48.08981 | 16.58665 | 592 ft | 22 kts | 165° |
| 2026-04-26 15:42 | 48.08840 | 16.58745 | 586 ft | 21 kts | 140° |
| 2026-04-26 15:42 | 48.08797 | 16.58955 | 580 ft | 19 kts | 75° |
| 2026-04-26 15:42 | 48.08895 | 16.59096 | 579 ft | 19 kts | 16° |
| 2026-04-26 15:43 | 48.09117 | 16.59038 | 584 ft | 62 kts | 345° |
| 2026-04-26 15:43 | 48.09830 | 16.58738 | 600 ft | 138 kts | 344° |
| 2026-04-26 15:43 | 48.11818 | 16.58039 | 2134 ft | 146 kts | 8° |
| 2026-04-26 15:44 | 48.12849 | 16.58536 | 2933 ft | 156 kts | 19° |
| 2026-04-26 15:44 | 48.15147 | 16.59871 | 4179 ft | 191 kts | 17° |
| 2026-04-26 15:44 | 48.16504 | 16.60631 | 4749 ft | 214 kts | 17° |
| 2026-04-26 15:45 | 48.19550 | 16.62550 | 6138 ft | 255 kts | 23° |
| 2026-04-26 15:45 | 48.21188 | 16.63966 | 7030 ft | 268 kts | 26° |
| 2026-04-26 15:46 | 48.24715 | 16.65633 | 9123 ft | 260 kts | 348° |
| 2026-04-26 15:46 | 48.26460 | 16.64655 | 10157 ft | 259 kts | 329° |
| 2026-04-26 15:46 | 48.28014 | 16.63269 | 11004 ft | 267 kts | 328° |
| 2026-04-26 15:46 | 48.28582 | 16.62763 | 11218 ft | 273 kts | 328° |
| 2026-04-26 15:47 | 48.31517 | 16.60159 | 12607 ft | 288 kts | 329° |
| 2026-04-26 15:47 | 48.35157 | 16.56934 | 14497 ft | 295 kts | 329° |
| 2026-04-26 15:47 | 48.37038 | 16.55266 | 15440 ft | 299 kts | 329° |
| 2026-04-26 15:48 | 48.38975 | 16.53548 | 16371 ft | 303 kts | 329° |
| 2026-04-26 15:48 | 48.40929 | 16.51813 | 17252 ft | 307 kts | 329° |
| 2026-04-26 15:48 | 48.42940 | 16.50026 | 18115 ft | 312 kts | 329° |
| 2026-04-26 15:48 | 48.44952 | 16.48062 | 18978 ft | 315 kts | 321° |
| 2026-04-26 15:49 | 48.46676 | 16.45318 | 19841 ft | 321 kts | 307° |
| 2026-04-26 15:49 | 48.47991 | 16.41874 | 20721 ft | 326 kts | 299° |
| 2026-04-26 15:49 | 48.49192 | 16.38221 | 21605 ft | 331 kts | 298° |
| 2026-04-26 15:49 | 48.50414 | 16.34463 | 22509 ft | 334 kts | 297° |
| 2026-04-26 15:50 | 48.51616 | 16.30770 | 23368 ft | 337 kts | 297° |
| 2026-04-26 15:50 | 48.52867 | 16.26934 | 24229 ft | 341 kts | 297° |
| 2026-04-26 15:50 | 48.54154 | 16.22987 | 25044 ft | 346 kts | 297° |
| 2026-04-26 15:50 | 48.55466 | 16.18959 | 25853 ft | 350 kts | 296° |
| 2026-04-26 15:51 | 48.56894 | 16.14982 | 26619 ft | 354 kts | 302° |
| 2026-04-26 15:51 | 48.58645 | 16.11237 | 27347 ft | 359 kts | 308° |
| 2026-04-26 15:51 | 48.60651 | 16.07788 | 28037 ft | 364 kts | 311° |
| 2026-04-26 15:51 | 48.62747 | 16.04375 | 28681 ft | 368 kts | 311° |
| 2026-04-26 15:52 | 48.64842 | 16.00974 | 29287 ft | 372 kts | 311° |
| 2026-04-26 15:52 | 48.66994 | 15.97472 | 29857 ft | 376 kts | 311° |
| 2026-04-26 15:52 | 48.69130 | 15.93985 | 30420 ft | 379 kts | 311° |
| 2026-04-26 15:52 | 48.70564 | 15.91639 | 30776 ft | 380 kts | 311° |
| 2026-04-26 15:53 | 48.73450 | 15.86913 | 31415 ft | 385 kts | 310° |
| 2026-04-26 15:53 | 48.75661 | 15.83281 | 31885 ft | 388 kts | 310° |
| 2026-04-26 15:53 | 48.77896 | 15.79605 | 32336 ft | 391 kts | 310° |
| 2026-04-26 15:53 | 48.80136 | 15.75914 | 32842 ft | 392 kts | 310° |
| 2026-04-26 15:54 | 48.82367 | 15.72238 | 33433 ft | 391 kts | 310° |
| 2026-04-26 15:54 | 48.84680 | 15.68595 | 33978 ft | 391 kts | 314° |
| 2026-04-26 15:54 | 48.87131 | 15.65276 | 34500 ft | 392 kts | 318° |
| 2026-04-26 15:54 | 48.89761 | 15.62243 | 34973 ft | 393 kts | 322° |
| 2026-04-26 15:55 | 48.92517 | 15.59562 | 35381 ft | 395 kts | 326° |
| 2026-04-26 15:55 | 48.95395 | 15.57225 | 35775 ft | 397 kts | 331° |
| 2026-04-26 15:55 | 48.98384 | 15.55164 | 36170 ft | 397 kts | 333° |
| 2026-04-26 15:55 | 49.01405 | 15.53167 | 36545 ft | 397 kts | 333° |
| 2026-04-26 15:56 | 49.04427 | 15.51174 | 36886 ft | 398 kts | 333° |
| 2026-04-26 15:56 | 49.07536 | 15.49115 | 37243 ft | 399 kts | 333° |
| 2026-04-26 15:56 | 49.10594 | 15.47082 | 37578 ft | 401 kts | 333° |
| 2026-04-26 15:56 | 49.13672 | 15.45032 | 37917 ft | 403 kts | 333° |
| 2026-04-26 15:57 | 49.16805 | 15.42940 | 38211 ft | 405 kts | 333° |
| 2026-04-26 15:57 | 49.23029 | 15.38777 | 38227 ft | 407 kts | 333° |
| 2026-04-26 15:58 | 49.29126 | 15.34688 | 38230 ft | 406 kts | 332° |
| 2026-04-26 15:58 | 49.35168 | 15.30623 | 38229 ft | 405 kts | 332° |
| 2026-04-26 15:59 | 49.41426 | 15.26402 | 38227 ft | 405 kts | 332° |
| 2026-04-26 15:59 | 49.47587 | 15.22232 | 38223 ft | 405 kts | 332° |
| 2026-04-26 16:00 | 49.53725 | 15.18067 | 38230 ft | 405 kts | 333° |
| 2026-04-26 16:00 | 49.59821 | 15.13922 | 38224 ft | 404 kts | 332° |
| 2026-04-26 16:01 | 49.65921 | 15.09759 | 38226 ft | 404 kts | 332° |
| 2026-04-26 16:01 | 49.72331 | 15.05609 | 38228 ft | 405 kts | 336° |
| 2026-04-26 16:02 | 49.78490 | 15.02171 | 38231 ft | 406 kts | 336° |
| 2026-04-26 16:02 | 49.84874 | 14.98624 | 38235 ft | 406 kts | 336° |
| 2026-04-26 16:03 | 49.91182 | 14.95104 | 38238 ft | 406 kts | 336° |
| 2026-04-26 16:03 | 49.97320 | 14.91664 | 38244 ft | 405 kts | 336° |
| 2026-04-26 16:04 | 50.03523 | 14.88177 | 38254 ft | 405 kts | 336° |
| 2026-04-26 16:04 | 50.09880 | 14.84590 | 38258 ft | 405 kts | 336° |
| 2026-04-26 16:05 | 50.16034 | 14.81111 | 38260 ft | 405 kts | 336° |
| 2026-04-26 16:05 | 50.22010 | 14.77725 | 38263 ft | 405 kts | 336° |
| 2026-04-26 16:06 | 50.28165 | 14.74226 | 38265 ft | 404 kts | 336° |
| 2026-04-26 16:06 | 50.34331 | 14.70711 | 38263 ft | 404 kts | 336° |
| 2026-04-26 16:07 | 50.40544 | 14.67158 | 38256 ft | 404 kts | 336° |
| 2026-04-26 16:07 | 50.46888 | 14.63523 | 38248 ft | 404 kts | 336° |
| 2026-04-26 16:08 | 50.53310 | 14.59831 | 38249 ft | 403 kts | 336° |
| 2026-04-26 16:08 | 50.59618 | 14.56194 | 38249 ft | 404 kts | 336° |
| 2026-04-26 16:09 | 50.66106 | 14.52444 | 38250 ft | 404 kts | 336° |
| 2026-04-26 16:09 | 50.72525 | 14.48722 | 38253 ft | 403 kts | 336° |
| 2026-04-26 16:10 | 50.78929 | 14.44996 | 38249 ft | 403 kts | 336° |
| 2026-04-26 16:10 | 50.85159 | 14.41363 | 38249 ft | 403 kts | 336° |
| 2026-04-26 16:11 | 50.91548 | 14.37653 | 38252 ft | 403 kts | 338° |
| 2026-04-26 16:11 | 50.98289 | 14.34622 | 38250 ft | 406 kts | 341° |
| 2026-04-26 16:12 | 51.05064 | 14.31877 | 38238 ft | 404 kts | 341° |
| 2026-04-26 16:12 | 51.15141 | 14.27760 | 38259 ft | 404 kts | 341° |
| 2026-04-26 16:13 | 51.21902 | 14.24982 | 38262 ft | 404 kts | 341° |
| 2026-04-26 16:13 | 51.28636 | 14.22211 | 38269 ft | 403 kts | 341° |
| 2026-04-26 16:14 | 51.35341 | 14.19439 | 38275 ft | 403 kts | 341° |
| 2026-04-26 16:15 | 51.45423 | 14.15256 | 38272 ft | 404 kts | 341° |
| 2026-04-26 16:15 | 51.52096 | 14.12475 | 38264 ft | 402 kts | 341° |
| 2026-04-26 16:16 | 51.62232 | 14.08239 | 38258 ft | 402 kts | 341° |
| 2026-04-26 16:16 | 51.68953 | 14.05417 | 38267 ft | 402 kts | 341° |
| 2026-04-26 16:17 | 51.75641 | 14.02602 | 38263 ft | 402 kts | 341° |
| 2026-04-26 16:17 | 51.82405 | 13.99746 | 38257 ft | 402 kts | 341° |
| 2026-04-26 16:18 | 51.92518 | 13.95457 | 38269 ft | 402 kts | 341° |
| 2026-04-26 16:19 | 52.02586 | 13.91171 | 38274 ft | 401 kts | 341° |
| 2026-04-26 16:20 | 52.12328 | 13.87001 | 38285 ft | 401 kts | 341° |
| 2026-04-26 16:20 | 52.22162 | 13.82773 | 38268 ft | 400 kts | 341° |
| 2026-04-26 16:21 | 52.28677 | 13.79964 | 38274 ft | 399 kts | 341° |
| 2026-04-26 16:21 | 52.35135 | 13.77168 | 38276 ft | 399 kts | 341° |
| 2026-04-26 16:22 | 52.41692 | 13.74324 | 38268 ft | 400 kts | 341° |
| 2026-04-26 16:22 | 52.48121 | 13.71522 | 38271 ft | 399 kts | 341° |
| 2026-04-26 16:23 | 52.54538 | 13.68720 | 38277 ft | 399 kts | 341° |
| 2026-04-26 16:23 | 52.61019 | 13.65882 | 38275 ft | 399 kts | 341° |
| 2026-04-26 16:24 | 52.67479 | 13.63043 | 38278 ft | 398 kts | 341° |
| 2026-04-26 16:24 | 52.74022 | 13.60159 | 38284 ft | 397 kts | 341° |
| 2026-04-26 16:25 | 52.80419 | 13.57330 | 38283 ft | 397 kts | 341° |
| 2026-04-26 16:25 | 52.86846 | 13.54482 | 38280 ft | 397 kts | 341° |
| 2026-04-26 16:26 | 52.92296 | 13.52057 | 38283 ft | 397 kts | 341° |
| 2026-04-26 16:26 | 52.99816 | 13.48704 | 38274 ft | 396 kts | 341° |
| 2026-04-26 16:27 | 53.06265 | 13.45815 | 38264 ft | 396 kts | 341° |
| 2026-04-26 16:27 | 53.12616 | 13.42963 | 38261 ft | 396 kts | 341° |
| 2026-04-26 16:28 | 53.19038 | 13.40073 | 38260 ft | 396 kts | 341° |
| 2026-04-26 16:28 | 53.25511 | 13.37148 | 38258 ft | 396 kts | 341° |
| 2026-04-26 16:29 | 53.32023 | 13.34196 | 38280 ft | 395 kts | 340° |
| 2026-04-26 16:29 | 53.38518 | 13.31241 | 38277 ft | 395 kts | 340° |
| 2026-04-26 16:30 | 53.44957 | 13.28305 | 38277 ft | 395 kts | 340° |
| 2026-04-26 16:30 | 53.51586 | 13.25271 | 38281 ft | 394 kts | 340° |
| 2026-04-26 16:31 | 53.58205 | 13.22234 | 38279 ft | 394 kts | 340° |
| 2026-04-26 16:31 | 53.64808 | 13.19194 | 38274 ft | 394 kts | 340° |
| 2026-04-26 16:32 | 53.70177 | 13.16713 | 38274 ft | 393 kts | 340° |
| 2026-04-26 16:32 | 53.77680 | 13.13237 | 38267 ft | 393 kts | 340° |
| 2026-04-26 16:33 | 53.84127 | 13.10240 | 38269 ft | 393 kts | 340° |
| 2026-04-26 16:33 | 53.90589 | 13.07226 | 37967 ft | 395 kts | 340° |
| 2026-04-26 16:34 | 53.93822 | 13.05718 | 37278 ft | 391 kts | 340° |
| 2026-04-26 16:34 | 53.96997 | 13.04233 | 36617 ft | 387 kts | 340° |
| 2026-04-26 16:34 | 54.00158 | 13.02752 | 36091 ft | 384 kts | 340° |
| 2026-04-26 16:34 | 54.03287 | 13.01280 | 35567 ft | 385 kts | 340° |
| 2026-04-26 16:35 | 54.06484 | 12.99774 | 35032 ft | 386 kts | 340° |
| 2026-04-26 16:35 | 54.09629 | 12.98291 | 34463 ft | 387 kts | 340° |
| 2026-04-26 16:35 | 54.12696 | 12.96796 | 33876 ft | 387 kts | 339° |
| 2026-04-26 16:35 | 54.15705 | 12.95149 | 33297 ft | 387 kts | 338° |
| 2026-04-26 16:36 | 54.18662 | 12.93493 | 32727 ft | 389 kts | 338° |
| 2026-04-26 16:36 | 54.21522 | 12.91884 | 32178 ft | 389 kts | 338° |
| 2026-04-26 16:36 | 54.24476 | 12.90223 | 31605 ft | 385 kts | 338° |
| 2026-04-26 16:36 | 54.27431 | 12.88565 | 31027 ft | 380 kts | 338° |
| 2026-04-26 16:37 | 54.30580 | 12.86877 | 30406 ft | 378 kts | 341° |
| 2026-04-26 16:37 | 54.33562 | 12.85579 | 29805 ft | 374 kts | 342° |
| 2026-04-26 16:37 | 54.36496 | 12.84342 | 29206 ft | 371 kts | 342° |
| 2026-04-26 16:37 | 54.38420 | 12.83524 | 28794 ft | 368 kts | 342° |
| 2026-04-26 16:38 | 54.42122 | 12.81930 | 27995 ft | 363 kts | 342° |
| 2026-04-26 16:38 | 54.44932 | 12.80707 | 27380 ft | 360 kts | 341° |
| 2026-04-26 16:38 | 54.47834 | 12.79438 | 26738 ft | 356 kts | 341° |
| 2026-04-26 16:38 | 54.50680 | 12.78187 | 26108 ft | 353 kts | 341° |
| 2026-04-26 16:39 | 54.53573 | 12.76911 | 25461 ft | 349 kts | 342° |
| 2026-04-26 16:39 | 54.56485 | 12.75624 | 24817 ft | 345 kts | 342° |
| 2026-04-26 16:39 | 54.59370 | 12.74348 | 24128 ft | 343 kts | 341° |
| 2026-04-26 16:39 | 54.62097 | 12.73138 | 23453 ft | 342 kts | 341° |
| 2026-04-26 16:40 | 54.64856 | 12.71913 | 22759 ft | 340 kts | 342° |
| 2026-04-26 16:40 | 54.67564 | 12.70707 | 22067 ft | 339 kts | 342° |
| 2026-04-26 16:40 | 54.70251 | 12.69509 | 21378 ft | 338 kts | 342° |
| 2026-04-26 16:40 | 54.73006 | 12.68279 | 20665 ft | 337 kts | 342° |
| 2026-04-26 16:41 | 54.75726 | 12.67065 | 19964 ft | 335 kts | 342° |
| 2026-04-26 16:41 | 54.78414 | 12.65863 | 19268 ft | 333 kts | 342° |
| 2026-04-26 16:41 | 54.81034 | 12.64689 | 18587 ft | 332 kts | 342° |
| 2026-04-26 16:41 | 54.83658 | 12.63513 | 17911 ft | 330 kts | 342° |
| 2026-04-26 16:42 | 54.86232 | 12.62357 | 17248 ft | 328 kts | 342° |
| 2026-04-26 16:42 | 54.88795 | 12.61205 | 16606 ft | 325 kts | 343° |
| 2026-04-26 16:42 | 54.91273 | 12.60089 | 15980 ft | 322 kts | 343° |
| 2026-04-26 16:42 | 54.93835 | 12.58935 | 15327 ft | 320 kts | 343° |
| 2026-04-26 16:43 | 54.96364 | 12.57794 | 14704 ft | 316 kts | 343° |
| 2026-04-26 16:43 | 54.98841 | 12.56675 | 14120 ft | 312 kts | 343° |
| 2026-04-26 16:43 | 55.01341 | 12.55545 | 13525 ft | 308 kts | 343° |
| 2026-04-26 16:43 | 55.03858 | 12.54405 | 12915 ft | 304 kts | 343° |
| 2026-04-26 16:44 | 55.06303 | 12.53296 | 12314 ft | 301 kts | 343° |
| 2026-04-26 16:44 | 55.08776 | 12.52172 | 11697 ft | 298 kts | 343° |
| 2026-04-26 16:44 | 55.11193 | 12.51072 | 11093 ft | 296 kts | 344° |
| 2026-04-26 16:44 | 55.13637 | 12.49958 | 10470 ft | 294 kts | 344° |
| 2026-04-26 16:45 | 55.16053 | 12.48857 | 9850 ft | 291 kts | 344° |
| 2026-04-26 16:45 | 55.18416 | 12.47782 | 9228 ft | 275 kts | 344° |
| 2026-04-26 16:45 | 55.20599 | 12.46790 | 8608 ft | 258 kts | 344° |
| 2026-04-26 16:45 | 55.22711 | 12.45824 | 8047 ft | 255 kts | 343° |
| 2026-04-26 16:46 | 55.24811 | 12.44862 | 7474 ft | 245 kts | 343° |
| 2026-04-26 16:46 | 55.26801 | 12.43952 | 6983 ft | 229 kts | 343° |
| 2026-04-26 16:46 | 55.28670 | 12.43095 | 6504 ft | 221 kts | 343° |
| 2026-04-26 16:46 | 55.30519 | 12.42244 | 6024 ft | 220 kts | 343° |
| 2026-04-26 16:47 | 55.32332 | 12.41408 | 5540 ft | 214 kts | 343° |
| 2026-04-26 16:47 | 55.34078 | 12.40605 | 5104 ft | 203 kts | 343° |
| 2026-04-26 16:47 | 55.35681 | 12.39867 | 4720 ft | 192 kts | 343° |
| 2026-04-26 16:47 | 55.37236 | 12.39149 | 4339 ft | 182 kts | 341° |
| 2026-04-26 16:48 | 55.38525 | 12.37856 | 4354 ft | 173 kts | 319° |
| 2026-04-26 16:48 | 55.39625 | 12.36044 | 4324 ft | 173 kts | 316° |
| 2026-04-26 16:48 | 55.40689 | 12.34202 | 4288 ft | 172 kts | 315° |
| 2026-04-26 16:48 | 55.41754 | 12.32351 | 4272 ft | 173 kts | 315° |
| 2026-04-26 16:49 | 55.42812 | 12.30510 | 4266 ft | 172 kts | 315° |
| 2026-04-26 16:49 | 55.44106 | 12.29327 | 4253 ft | 177 kts | 353° |
| 2026-04-26 16:49 | 55.45509 | 12.30339 | 4076 ft | 189 kts | 40° |
| 2026-04-26 16:49 | 55.46048 | 12.32993 | 3750 ft | 198 kts | 89° |
| 2026-04-26 16:50 | 55.45780 | 12.35914 | 3461 ft | 196 kts | 90° |
| 2026-04-26 16:50 | 55.46019 | 12.38790 | 3140 ft | 191 kts | 67° |
| 2026-04-26 16:50 | 55.46873 | 12.41178 | 2866 ft | 184 kts | 45° |
| 2026-04-26 16:50 | 55.48011 | 12.43098 | 2673 ft | 183 kts | 36° |
| 2026-04-26 16:51 | 55.49242 | 12.44913 | 2482 ft | 182 kts | 36° |
| 2026-04-26 16:51 | 55.50413 | 12.46680 | 2294 ft | 172 kts | 37° |
| 2026-04-26 16:51 | 55.51479 | 12.48335 | 2070 ft | 159 kts | 37° |
| 2026-04-26 16:51 | 55.52467 | 12.49876 | 1788 ft | 142 kts | 37° |
| 2026-04-26 16:52 | 55.53332 | 12.51227 | 1532 ft | 127 kts | 36° |
| 2026-04-26 16:52 | 55.53603 | 12.51648 | 1468 ft | 127 kts | 36° |
| 2026-04-26 16:52 | 55.54966 | 12.53761 | 1147 ft | 126 kts | 37° |
| 2026-04-26 16:52 | 55.55778 | 12.55022 | 939 ft | 126 kts | 36° |
| 2026-04-26 16:53 | 55.56587 | 12.56277 | 726 ft | 125 kts | 37° |
| 2026-04-26 16:53 | 55.57383 | 12.57514 | 522 ft | 125 kts | 36° |
| 2026-04-26 16:53 | 55.58197 | 12.58775 | 295 ft | 126 kts | 36° |
| 2026-04-26 16:53 | 55.58998 | 12.60022 | 135 ft | 125 kts | 35° |
| 2026-04-26 16:54 | 55.59784 | 12.61252 | 14 ft | 119 kts | 35° |
| 2026-04-26 16:54 | 55.60339 | 12.62074 | 15 ft | 55 kts | 37° |
| 2026-04-26 16:54 | 55.60623 | 12.62331 | 15 ft | 35 kts | 12° |
| 2026-04-26 16:54 | 55.60821 | 12.62455 | 18 ft | 23 kts | 37° |
| 2026-04-26 16:55 | 55.60965 | 12.62663 | 21 ft | 21 kts | 39° |
| 2026-04-26 16:55 | 55.61096 | 12.62871 | 23 ft | 20 kts | 41° |
| 2026-04-26 16:55 | 55.61232 | 12.63079 | 20 ft | 22 kts | 40° |
| 2026-04-26 16:55 | 55.61370 | 12.63295 | 22 ft | 21 kts | 38° |
| 2026-04-26 16:56 | 55.61615 | 12.63680 | 24 ft | 18 kts | 36° |
| 2026-04-26 16:56 | 55.61736 | 12.63856 | 22 ft | 19 kts | 44° |
| 2026-04-26 16:56 | 55.61840 | 12.64024 | 21 ft | 7 kts | 39° |
| 2026-04-26 16:57 | 55.61920 | 12.64113 | 19 ft | 13 kts | 26° |
| 2026-04-26 16:57 | 55.62030 | 12.64202 | 17 ft | 16 kts | 22° |
| 2026-04-26 16:57 | 55.62301 | 12.64404 | 15 ft | 18 kts | 13° |
| 2026-04-26 16:58 | 55.62429 | 12.64419 | 16 ft | 15 kts | 319° |
| 2026-04-26 16:58 | 55.62456 | 12.64366 | 15 ft | 15 kts | 309° |
| 2026-04-26 16:58 | 55.62655 | 12.63866 | 15 ft | 15 kts | 336° |
| 2026-04-26 16:59 | 55.62766 | 12.63944 | 15 ft | 16 kts | 32° |
| 2026-04-26 16:59 | 55.62823 | 12.64191 | 19 ft | 8 kts | 121° |
| 2026-04-26 17:00 | 55.62812 | 12.64219 | 19 ft | 0 kts | 124° |